Allentown, New York
Current Conditions -  °F | °C
As of 11:56 PM on Sunday 23 Nov 2014 (Local Time) from KELZ Reporting Station
Light Rain Light Rain  
Wind Chill: 40°   Ceiling: 5000
Heat Index: 47°   Visibility: 10mi
Dew Point: 41°   Wind: 16mph
Humidity: 80%   Direction: 160°SSE
Pressure: 29.68"   Gusts: 32mph
Location:  42.08°N, 78.06°W
Report Text: KELZ 240456Z AUTO 16014G28KT 10SM -RA SCT018 BKN050 OVC100 08/05 A2968 RMK AO2 PK WND 15030/0403 RAB03 PRESFR SLP060 P0000 T00830050 401170050
Loading
Personal Weather Stations






























Interactive Weather Map New forecast layout! Learn more

10-Day Weather Forecast

Advertisements
Track Severe Weather on mobile